Time;durP1;ratioP1;P1;durP2;ratioP2;P2;SDS_P1;SDS_P2;PMS_P1;PMS_P2;Temp;Humidity;BMP_temperature;BMP_pressure;BME280_temperature;BME280_humidity;BME280_pressure;Samples;Min_cycle;Max_cycle;Signal;HPM_P1;HPM_P2
2022/08/30 00:01:01;;;;;;;8.27;3.97;;;15.50;99.90;;;;;;5101418;28;20055;-50
2022/08/30 00:01:56;;;;;;;10.38;4.35;;;15.50;99.90;;;;;;5101308;28;20120;-50
2022/08/30 00:04:22;;;;;;;10.10;4.10;;;15.50;99.90;;;;;;5101697;28;20043;-52
2022/08/30 00:06:48;;;;;;;9.13;4.72;;;15.50;99.90;;;;;;5100996;28;20043;-49
2022/08/30 00:09:13;;;;;;;6.82;3.88;;;15.50;99.90;;;;;;5101710;28;20069;-49
2022/08/30 00:11:39;;;;;;;7.55;4.35;;;15.40;99.90;;;;;;5100662;28;20047;-51
2022/08/30 00:14:05;;;;;;;6.78;3.95;;;15.50;99.90;;;;;;5101603;28;20040;-51
2022/08/30 00:16:32;;;;;;;8.93;4.25;;;15.50;99.90;;;;;;5081305;28;20063;-49
2022/08/30 00:18:57;;;;;;;6.30;4.05;;;15.40;99.90;;;;;;5080541;28;20555;-50
2022/08/30 00:21:23;;;;;;;8.35;4.13;;;15.40;99.90;;;;;;5080837;28;20045;-51
2022/08/30 00:23:49;;;;;;;7.47;4.10;;;15.40;99.90;;;;;;5080426;28;20045;-50
2022/08/30 00:26:15;;;;;;;7.72;4.22;;;15.40;99.90;;;;;;5079899;28;20036;-51
2022/08/30 00:28:41;;;;;;;7.68;4.30;;;15.30;99.90;;;;;;5080348;28;20042;-48
2022/08/30 00:31:07;;;;;;;8.57;4.07;;;15.40;99.90;;;;;;5081014;28;20037;-51
2022/08/30 00:33:33;;;;;;;7.28;4.10;;;15.30;99.90;;;;;;5080822;28;20068;-50
2022/08/30 00:35:58;;;;;;;6.32;3.60;;;15.30;99.90;;;;;;5080359;28;20059;-49
2022/08/30 00:38:24;;;;;;;8.00;3.80;;;15.20;99.90;;;;;;5091111;28;20032;-50
2022/08/30 00:40:50;;;;;;;8.65;4.10;;;15.20;99.90;;;;;;5099980;28;20500;-47
2022/08/30 00:43:31;;;;;;;6.88;3.78;;;15.30;99.90;;;;;;5101154;28;20044;-48
2022/08/30 00:45:56;;;;;;;8.63;3.63;;;15.20;99.90;;;;;;5100343;28;20078;-49
2022/08/30 00:48:22;;;;;;;7.45;3.97;;;15.20;99.90;;;;;;5101066;28;20100;-50
2022/08/30 00:50:55;;;;;;;7.57;3.30;;;15.20;99.90;;;;;;5101039;28;20621;-50
2022/08/30 00:53:25;;;;;;;7.47;3.58;;;15.30;99.90;;;;;;5100192;28;20119;-51
2022/08/30 00:55:53;;;;;;;8.48;3.47;;;15.20;99.90;;;;;;5100535;28;20059;-51
2022/08/30 00:58:25;;;;;;;8.15;3.53;;;15.20;99.90;;;;;;5099975;28;20083;-50
2022/08/30 01:00:53;;;;;;;;;;;15.30;99.90;;;;;;5101655;28;20056;-48
2022/08/30 01:03:18;;;;;;;6.88;3.45;;;15.20;99.90;;;;;;5100327;28;19920;-50
2022/08/30 01:05:45;;;;;;;7.57;3.58;;;15.30;99.90;;;;;;5100192;28;20056;-49
2022/08/30 01:08:11;;;;;;;6.38;3.47;;;15.30;99.90;;;;;;5100466;28;20488;-48
2022/08/30 01:10:37;;;;;;;6.93;3.30;;;15.30;99.90;;;;;;5099775;28;20040;-48
2022/08/30 01:13:03;;;;;;;7.90;3.63;;;15.30;99.90;;;;;;5100414;28;20044;-48
2022/08/30 01:15:31;;;;;;;6.28;3.50;;;15.20;99.90;;;;;;5099690;28;20039;-49
2022/08/30 01:17:57;;;;;;;6.25;3.22;;;15.20;99.90;;;;;;5086752;28;20041;-50
2022/08/30 01:20:30;;;;;;;7.30;3.35;;;15.20;99.90;;;;;;5079561;28;20051;-48
2022/08/30 01:23:07;;;;;;;7.70;3.35;;;15.30;99.90;;;;;;5079589;28;20500;-51
2022/08/30 01:25:34;;;;;;;7.03;3.05;;;15.30;99.90;;;;;;5079949;28;20064;-52
2022/08/30 01:28:06;;;;;;;6.97;3.10;;;15.30;99.90;;;;;;5079132;28;20045;-52
2022/08/30 01:30:32;;;;;;;8.52;3.55;;;15.10;99.90;;;;;;5080030;28;20036;-48
2022/08/30 01:33:01;;;;;;;7.30;3.72;;;15.20;99.90;;;;;;5079158;28;20487;-51
2022/08/30 01:35:32;;;;;;;7.55;3.45;;;15.20;99.90;;;;;;5079824;28;20055;-51
2022/08/30 01:37:57;;;;;;;6.70;3.17;;;15.30;99.90;;;;;;5086163;28;20090;-49
2022/08/30 01:40:23;;;;;;;6.25;3.15;;;15.30;99.90;;;;;;5099162;28;20044;-51
2022/08/30 01:42:49;;;;;;;5.57;3.17;;;15.20;99.90;;;;;;5098520;28;20064;-52
2022/08/30 01:45:14;;;;;;;8.13;4.35;;;15.20;99.90;;;;;;5098952;28;20071;-50
2022/08/30 01:47:41;;;;;;;8.10;4.18;;;15.20;99.90;;;;;;5099818;28;20043;-49
2022/08/30 01:50:07;;;;;;;7.38;4.10;;;15.20;99.90;;;;;;5098895;28;20616;-48
2022/08/30 01:52:33;;;;;;;5.97;3.60;;;15.30;99.90;;;;;;5099872;28;20035;-50
2022/08/30 01:54:59;;;;;;;7.13;3.83;;;15.30;99.90;;;;;;5099359;28;20056;-50
2022/08/30 01:57:25;;;;;;;9.50;3.53;;;15.30;99.90;;;;;;5098584;28;20047;-51
2022/08/30 01:59:52;;;;;;;6.40;3.55;;;15.30;99.90;;;;;;5099297;28;20050;-50
2022/08/30 02:02:24;;;;;;;7.22;3.53;;;15.30;99.90;;;;;;5098598;28;20060;-49
2022/08/30 02:04:52;;;;;;;8.10;4.00;;;15.30;99.90;;;;;;5099713;28;20047;-49
2022/08/30 02:07:19;;;;;;;7.65;3.42;;;15.30;99.90;;;;;;5098978;28;20052;-49
2022/08/30 02:09:44;;;;;;;7.63;3.30;;;15.30;99.90;;;;;;5097868;28;20074;-50
2022/08/30 02:12:10;;;;;;;7.10;3.60;;;15.40;99.90;;;;;;5097749;28;20044;-51
2022/08/30 02:14:37;;;;;;;7.32;3.83;;;15.40;99.90;;;;;;5098718;28;20666;-52
2022/08/30 02:17:06;;;;;;;6.88;3.58;;;15.30;99.90;;;;;;5092740;28;20064;-53
2022/08/30 02:19:32;;;;;;;7.05;3.55;;;15.40;99.90;;;;;;5078260;28;20496;-52
2022/08/30 02:21:57;;;;;;;7.53;3.78;;;15.40;99.90;;;;;;5079198;28;20060;-49
2022/08/30 02:24:23;;;;;;;7.38;3.58;;;15.40;99.90;;;;;;5078291;28;20053;-49
2022/08/30 02:26:51;;;;;;;6.50;3.42;;;15.40;99.90;;;;;;5078581;28;20064;-51
2022/08/30 02:29:18;;;;;;;7.15;4.50;;;15.40;99.90;;;;;;5078574;28;20398;-49
2022/08/30 02:31:43;;;;;;;7.10;3.55;;;15.40;99.90;;;;;;5078280;28;20047;-48
2022/08/30 02:34:09;;;;;;;6.50;3.63;;;15.40;99.90;;;;;;5078411;28;20110;-51
2022/08/30 02:36:35;;;;;;;8.70;3.60;;;15.40;99.90;;;;;;5077925;28;20037;-52
2022/08/30 02:39:01;;;;;;;7.40;3.85;;;15.40;99.90;;;;;;5093561;28;20050;-52
2022/08/30 02:41:27;;;;;;;6.78;3.67;;;15.40;99.90;;;;;;5098089;28;20431;-49
2022/08/30 02:43:57;;;;;;;7.80;3.92;;;15.30;99.90;;;;;;5098809;28;20040;-48
2022/08/30 02:46:23;;;;;;;7.38;4.45;;;15.40;99.90;;;;;;5098690;28;20620;-51
2022/08/30 02:48:48;;;;;;;7.80;3.92;;;15.40;99.90;;;;;;5098244;28;20036;-51
2022/08/30 02:51:14;;;;;;;8.20;4.28;;;15.30;99.90;;;;;;5098715;28;20415;-52
2022/08/30 02:53:42;;;;;;;8.98;4.03;;;15.40;99.90;;;;;;5097757;28;20051;-52
2022/08/30 02:56:08;;;;;;;7.07;4.35;;;15.40;99.90;;;;;;5098357;28;20493;-52
2022/08/30 02:58:35;;;;;;;7.72;4.00;;;15.30;99.90;;;;;;5098117;28;20051;-50
2022/08/30 03:01:00;;;;;;;7.75;4.32;;;15.30;99.90;;;;;;5098453;28;20044;-52
2022/08/30 03:03:26;;;;;;;7.72;3.95;;;15.30;99.90;;;;;;5098544;28;20101;-49
2022/08/30 03:05:52;;;;;;;8.45;4.65;;;15.30;99.90;;;;;;5098067;28;20033;-49
2022/08/30 03:08:18;;;;;;;8.27;3.90;;;15.30;99.90;;;;;;5097665;28;20040;-50
2022/08/30 03:10:43;;;;;;;8.75;4.25;;;15.30;99.90;;;;;;5097069;28;20036;-49
2022/08/30 03:13:09;;;;;;;8.55;4.28;;;15.30;99.90;;;;;;5098164;28;20052;-49
2022/08/30 03:15:36;;;;;;;8.40;4.20;;;15.30;99.90;;;;;;5097429;28;20052;-50
2022/08/30 03:18:02;;;;;;;8.48;4.28;;;15.20;99.90;;;;;;5083544;28;20060;-48
2022/08/30 03:20:28;;;;;;;10.60;4.70;;;15.30;99.90;;;;;;5077499;28;20519;-48
2022/08/30 03:22:54;;;;;;;8.27;4.68;;;15.20;99.90;;;;;;5077842;28;20036;-51
2022/08/30 03:25:20;;;;;;;8.15;4.70;;;15.20;99.90;;;;;;5077836;28;20045;-51
2022/08/30 03:27:46;;;;;;;7.80;4.60;;;15.20;99.90;;;;;;5077389;28;20041;-49
2022/08/30 03:30:13;;;;;;;8.35;4.70;;;15.20;99.90;;;;;;5077738;28;20049;-51
2022/08/30 03:32:39;;;;;;;10.07;6.00;;;15.20;99.90;;;;;;5077195;28;20044;-49
2022/08/30 03:35:05;;;;;;;11.02;5.68;;;15.10;99.90;;;;;;5078045;28;20706;-51
2022/08/30 03:37:31;;;;;;;10.02;5.47;;;15.10;99.90;;;;;;5080245;28;20070;-52
2022/08/30 03:39:57;;;;;;;9.60;6.47;;;15.10;99.90;;;;;;5097344;28;20912;-50
2022/08/30 03:42:23;;;;;;;8.90;5.70;;;15.10;99.90;;;;;;5098060;28;20044;-51
2022/08/30 03:44:48;;;;;;;12.85;6.25;;;15.10;99.90;;;;;;5095928;28;20415;-48
2022/08/30 03:47:14;;;;;;;10.23;5.75;;;15.00;99.90;;;;;;5097773;28;20043;-52
2022/08/30 03:49:40;;;;;;;9.70;6.47;;;15.00;99.90;;;;;;5097104;28;20036;-52
2022/08/30 03:52:06;;;;;;;10.43;6.63;;;15.00;99.90;;;;;;5098361;28;20039;-50
2022/08/30 03:54:32;;;;;;;10.93;6.65;;;14.90;99.90;;;;;;5097092;28;20531;-49
2022/08/30 03:56:57;;;;;;;13.73;7.82;;;14.90;99.90;;;;;;5097853;28;20583;-51
2022/08/30 03:59:23;;;;;;;10.30;6.40;;;14.90;99.90;;;;;;5097777;28;20052;-50
2022/08/30 04:01:49;;;;;;;11.88;6.93;;;14.90;99.90;;;;;;5097372;28;20490;-52
2022/08/30 04:04:15;;;;;;;11.30;6.97;;;14.90;99.90;;;;;;5097848;28;20070;-51
2022/08/30 04:06:40;;;;;;;11.18;7.13;;;14.80;99.90;;;;;;5095863;28;20039;-50
2022/08/30 04:09:06;;;;;;;9.23;6.45;;;14.90;99.90;;;;;;5097689;28;20036;-49
2022/08/30 04:11:32;;;;;;;10.27;6.13;;;14.70;99.90;;;;;;5097240;28;20075;-50
2022/08/30 04:13:58;;;;;;;9.57;6.68;;;14.70;99.90;;;;;;5097684;28;20075;-50
2022/08/30 04:16:25;;;;;;;12.05;6.10;;;14.70;99.90;;;;;;5096610;28;20383;-51
2022/08/30 04:18:51;;;;;;;9.75;6.20;;;14.70;99.90;;;;;;5077652;28;20129;-48
2022/08/30 04:21:17;;;;;;;10.13;5.97;;;14.70;99.90;;;;;;5080890;28;20047;-51
2022/08/30 04:23:43;;;;;;;8.50;4.95;;;14.70;99.90;;;;;;5080380;28;20055;-50
2022/08/30 04:26:10;;;;;;;7.65;4.80;;;14.60;99.90;;;;;;5079766;28;20037;-49
2022/08/30 04:28:36;;;;;;;9.27;5.05;;;14.60;99.90;;;;;;5080413;28;20048;-51
2022/08/30 04:31:13;;;;;;;9.57;5.22;;;14.60;99.90;;;;;;5081092;28;20127;-50
2022/08/30 04:33:40;;;;;;;8.65;4.53;;;14.60;99.90;;;;;;5080859;28;20052;-50
2022/08/30 04:36:08;;;;;;;9.70;4.65;;;14.50;99.90;;;;;;5080194;28;20044;-51
2022/08/30 04:38:35;;;;;;;7.90;4.60;;;14.50;99.90;;;;;;5092298;28;20070;-48
2022/08/30 04:41:00;;;;;;;7.93;5.38;;;14.50;99.90;;;;;;5100316;28;20044;-50
2022/08/30 04:43:26;;;;;;;8.57;4.82;;;14.40;99.90;;;;;;5101189;28;20125;-48
2022/08/30 04:45:53;;;;;;;8.05;4.47;;;14.50;99.90;;;;;;5100588;28;20407;-50
2022/08/30 04:48:21;;;;;;;10.02;4.85;;;14.40;99.90;;;;;;5100678;28;20097;-50
2022/08/30 04:50:47;;;;;;;8.80;4.40;;;14.40;99.90;;;;;;5100682;28;20179;-51
2022/08/30 04:53:14;;;;;;;7.38;4.57;;;14.40;99.90;;;;;;5100210;28;20044;-51
2022/08/30 04:55:42;;;;;;;9.10;4.57;;;14.40;99.90;;;;;;5100643;28;20052;-51
2022/08/30 04:58:08;;;;;;;7.28;4.38;;;14.40;99.90;;;;;;5100019;28;20040;-51
2022/08/30 05:00:36;;;;;;;10.30;4.70;;;14.30;99.90;;;;;;5099253;28;20106;-50
2022/08/30 05:03:02;;;;;;;7.55;4.55;;;14.40;99.90;;;;;;5099942;28;20100;-51
2022/08/30 05:05:40;;;;;;;7.75;4.65;;;14.40;99.90;;;;;;5100392;28;20040;-50
2022/08/30 05:08:08;;;;;;;7.85;4.40;;;14.40;99.90;;;;;;5099161;28;20051;-50
2022/08/30 05:10:44;;;;;;;7.85;4.25;;;14.30;99.90;;;;;;5099671;28;20079;-52
2022/08/30 05:13:11;;;;;;;6.95;4.25;;;14.40;99.90;;;;;;5100737;28;20044;-51
2022/08/30 05:15:39;;;;;;;10.40;4.72;;;14.30;99.90;;;;;;5099425;28;20040;-48
2022/08/30 05:18:06;;;;;;;8.25;4.50;;;14.20;99.90;;;;;;5085574;28;20045;-51
2022/08/30 05:20:33;;;;;;;10.10;4.30;;;14.30;99.90;;;;;;5079849;28;20055;-50
2022/08/30 05:22:59;;;;;;;9.38;4.45;;;14.30;99.90;;;;;;5079482;28;20060;-49
2022/08/30 05:25:32;;;;;;;8.02;4.32;;;14.30;99.90;;;;;;5079881;28;20036;-49
2022/08/30 05:27:58;;;;;;;6.78;4.07;;;14.40;99.90;;;;;;5079072;28;20044;-48
2022/08/30 05:30:26;;;;;;;8.90;4.55;;;14.40;99.90;;;;;;5079122;28;20068;-48
2022/08/30 05:32:53;;;;;;;7.25;4.10;;;14.40;99.90;;;;;;5077897;28;20037;-50
2022/08/30 05:35:19;;;;;;;8.63;4.38;;;14.40;99.90;;;;;;5076687;28;20040;-52
2022/08/30 05:37:45;;;;;;;10.43;3.88;;;14.50;99.90;;;;;;5081048;28;20095;-52
2022/08/30 05:40:13;;;;;;;11.07;4.47;;;14.60;99.90;;;;;;5096070;28;20044;-49
2022/08/30 05:42:42;;;;;;;10.02;4.25;;;14.60;99.90;;;;;;5096338;28;20040;-52
2022/08/30 05:45:08;;;;;;;9.82;5.35;;;14.70;99.90;;;;;;5095479;28;20048;-52
2022/08/30 05:47:35;;;;;;;8.23;4.20;;;14.80;99.90;;;;;;5096747;28;20074;-50
2022/08/30 05:50:01;;;;;;;7.60;4.85;;;14.80;99.90;;;;;;5095875;28;20059;-52
2022/08/30 05:52:26;;;;;;;9.30;5.38;;;14.80;99.90;;;;;;5096673;28;20119;-52
2022/08/30 05:54:54;;;;;;;9.20;4.90;;;14.90;99.90;;;;;;5096051;28;20048;-51
2022/08/30 05:57:21;;;;;;;8.82;4.68;;;14.90;99.90;;;;;;5089074;28;20047;-49
2022/08/30 05:59:46;;;;;;;8.38;4.35;;;15.10;99.90;;;;;;5084648;28;20071;-51
2022/08/30 06:02:12;;;;;;;10.32;4.43;;;15.10;99.90;;;;;;5087110;28;20039;-57
2022/08/30 06:04:38;;;;;;;9.15;4.82;;;15.20;99.90;;;;;;5096252;28;20036;-53
2022/08/30 06:07:04;;;;;;;8.43;4.93;;;15.30;99.90;;;;;;5095294;28;20032;-50
2022/08/30 06:09:30;;;;;;;8.88;4.40;;;15.40;99.90;;;;;;5095526;28;20047;-52
2022/08/30 06:11:56;;;;;;;9.98;4.45;;;15.40;99.90;;;;;;5095528;28;20050;-52
2022/08/30 06:14:22;;;;;;;8.80;4.43;;;15.50;99.90;;;;;;5095283;28;20078;-52
2022/08/30 06:16:48;;;;;;;6.45;4.13;;;15.60;99.90;;;;;;5090710;28;20048;-50
2022/08/30 06:19:15;;;;;;;8.48;3.70;;;15.70;99.90;;;;;;5074557;28;20104;-53
2022/08/30 06:21:42;;;;;;;13.02;4.28;;;15.70;99.90;;;;;;5074933;28;20299;-53
2022/08/30 06:24:09;;;;;;;7.05;4.03;;;15.80;99.90;;;;;;5074730;28;20456;-51
2022/08/30 06:26:41;;;;;;;7.72;3.80;;;15.90;99.90;;;;;;5075089;28;20515;-51
2022/08/30 06:29:09;;;;;;;8.57;4.55;;;16.00;99.90;;;;;;5075274;28;20147;-52
2022/08/30 06:31:35;;;;;;;7.85;4.20;;;16.00;99.90;;;;;;5074566;28;20055;-49
2022/08/30 06:34:00;;;;;;;12.18;5.28;;;16.10;99.90;;;;;;5074925;28;20103;-52
2022/08/30 06:36:26;;;;;;;9.30;4.50;;;16.10;99.90;;;;;;5074212;28;20091;-52
2022/08/30 06:38:54;;;;;;;10.40;3.60;;;16.20;99.90;;;;;;5088841;28;20471;-52
2022/08/30 06:41:23;;;;;;;8.32;3.85;;;16.30;99.90;;;;;;5094214;28;20040;-53
2022/08/30 06:43:49;;;;;;;8.13;3.60;;;16.40;99.90;;;;;;5095467;28;20036;-49
2022/08/30 06:46:27;;;;;;;5.90;3.42;;;16.40;99.90;;;;;;5094713;28;20044;-47
2022/08/30 06:48:55;;;;;;;8.95;3.53;;;16.50;99.90;;;;;;5094795;28;20059;-48
2022/08/30 06:51:31;;;;;;;8.35;3.42;;;16.50;99.90;;;;;;5094824;28;20051;-50
2022/08/30 06:53:58;;;;;;;7.88;3.50;;;16.60;99.90;;;;;;5094263;28;20044;-51
2022/08/30 06:56:24;;;;;;;6.38;3.15;;;16.70;99.90;;;;;;5095035;28;20083;-51
2022/08/30 06:58:50;;;;;;;7.80;3.15;;;16.70;99.90;;;;;;5085631;28;20052;-50
2022/08/30 07:01:19;;;;;;;8.57;3.17;;;16.80;99.90;;;;;;5089190;28;20050;-49
2022/08/30 07:03:45;;;;;;;8.25;3.25;;;16.90;99.90;;;;;;5083644;28;20044;-51
2022/08/30 07:06:11;;;;;;;5.93;2.65;;;16.90;99.90;;;;;;5076914;28;20064;-52
2022/08/30 07:08:37;;;;;;;10.07;2.83;;;16.90;99.90;;;;;;5074613;28;20072;-49
2022/08/30 07:11:04;;;;;;;7.60;2.83;;;17.10;99.90;;;;;;5073729;28;20132;-51
2022/08/30 07:13:30;;;;;;;7.38;2.95;;;17.10;99.90;;;;;;5073588;28;20083;-50
2022/08/30 07:15:56;;;;;;;6.43;2.60;;;17.20;99.90;;;;;;5074195;28;20025;-51
2022/08/30 07:21:14;;;;;;;6.63;2.40;;;17.30;99.90;;;;;;5094568;28;20090;-50
2022/08/30 07:23:42;;;;;;;5.88;2.60;;;17.30;99.90;;;;;;5094468;28;20047;-49
2022/08/30 07:26:10;;;;;;;5.22;2.35;;;17.40;99.90;;;;;;5095065;28;20043;-53
2022/08/30 07:28:38;;;;;;;8.35;2.60;;;17.50;99.90;;;;;;5094137;28;20063;-53
2022/08/30 07:31:04;;;;;;;6.10;2.05;;;17.60;99.90;;;;;;5094632;28;20040;-51
2022/08/30 07:33:31;;;;;;;5.45;2.10;;;17.70;99.90;;;;;;5094499;28;20121;-50
2022/08/30 07:35:58;;;;;;;6.97;2.05;;;17.80;99.90;;;;;;5094302;28;20534;-51
2022/08/30 07:38:27;;;;;;;10.07;2.58;;;17.90;99.90;;;;;;5094654;28;20052;-50
2022/08/30 07:40:52;;;;;;;5.10;2.17;;;17.90;99.90;;;;;;5093868;28;20051;-54
2022/08/30 07:43:18;;;;;;;7.15;2.20;;;18.00;99.90;;;;;;5094599;28;20048;-51
2022/08/30 07:45:44;;;;;;;7.30;2.10;;;18.10;99.90;;;;;;5093410;28;20096;-53
2022/08/30 07:48:13;;;;;;;7.20;2.35;;;18.10;99.90;;;;;;5094066;28;20058;-53
2022/08/30 07:50:43;;;;;;;5.95;1.90;;;18.20;99.90;;;;;;5094384;28;20103;-52
2022/08/30 07:53:09;;;;;;;5.45;1.80;;;18.20;99.90;;;;;;5093562;28;20036;-56
2022/08/30 07:55:34;;;;;;;6.53;1.98;;;18.30;99.90;;;;;;5097563;28;20060;-54
2022/08/30 07:58:00;;;;;;;4.88;1.73;;;18.30;99.90;;;;;;5079018;28;20419;-53
2022/08/30 08:00:26;;;;;;;5.47;1.70;;;18.30;99.90;;;;;;5098446;28;20040;-53
2022/08/30 08:02:52;;;;;;;3.85;1.40;;;18.40;99.90;;;;;;5097473;28;20047;-53
2022/08/30 08:05:18;;;;;;;5.47;1.42;;;18.20;99.90;;;;;;5098112;28;20044;-53
2022/08/30 08:07:43;;;;;;;5.53;1.88;;;18.30;99.90;;;;;;5098214;28;20048;-53
2022/08/30 08:10:09;;;;;;;5.10;1.48;;;18.50;99.90;;;;;;5096988;28;20066;-53
2022/08/30 08:12:35;;;;;;;4.97;1.63;;;18.50;99.90;;;;;;5097917;28;20048;-55
2022/08/30 08:15:01;;;;;;;4.97;1.65;;;18.50;99.90;;;;;;5097262;28;20063;-54
2022/08/30 08:17:27;;;;;;;4.35;1.35;;;18.50;99.90;;;;;;5087969;28;20127;-53
2022/08/30 08:19:53;;;;;;;4.93;1.60;;;18.60;99.90;;;;;;5075684;28;20052;-53
2022/08/30 08:22:18;;;;;;;4.85;1.48;;;18.60;99.90;;;;;;5077600;28;20044;-53
2022/08/30 08:24:45;;;;;;;5.22;1.52;;;18.70;99.90;;;;;;5076369;28;20049;-53
2022/08/30 08:27:10;;;;;;;5.28;1.58;;;18.60;99.90;;;;;;5077427;28;20063;-53
2022/08/30 08:29:36;;;;;;;5.82;1.48;;;18.70;99.90;;;;;;5077720;28;20049;-52
2022/08/30 08:32:02;;;;;;;5.43;1.65;;;18.70;99.90;;;;;;5076913;28;20071;-53
2022/08/30 08:34:28;;;;;;;4.97;1.50;;;18.70;99.90;;;;;;5077184;28;20055;-53
2022/08/30 08:36:54;;;;;;;4.00;1.48;;;18.70;99.90;;;;;;5075640;28;20604;-53
2022/08/30 08:39:20;;;;;;;4.80;1.50;;;18.80;99.90;;;;;;5095302;28;20040;-54
2022/08/30 08:42:08;;;;;;;7.47;1.90;;;18.90;99.90;;;;;;5097351;28;20105;-53
2022/08/30 08:45:02;;;;;;;4.80;1.48;;;19.10;99.90;;;;;;5096820;28;20051;-53
2022/08/30 08:47:38;;;;;;;6.00;1.70;;;19.30;99.90;;;;;;5097642;28;20602;-53
2022/08/30 08:50:11;;;;;;;4.95;1.45;;;19.40;99.90;;;;;;5096959;28;20496;-53
2022/08/30 08:55:44;;;;;;;5.15;1.90;;;19.60;99.90;;;;;;5097292;28;20562;-52
2022/08/30 08:58:26;;;;;;;5.53;1.50;;;19.60;99.90;;;;;;5096515;28;20056;-52
2022/08/30 09:00:53;;;;;;;4.65;1.48;;;19.60;99.90;;;;;;5097644;28;20052;-53
2022/08/30 09:03:21;;;;;;;7.47;1.95;;;19.60;99.90;;;;;;5095980;28;20113;-53
2022/08/30 09:05:47;;;;;;;4.88;1.60;;;19.50;99.90;;;;;;5095358;28;20040;-52
2022/08/30 09:08:15;;;;;;;4.88;1.40;;;19.60;99.90;;;;;;5097538;28;20078;-53
2022/08/30 09:11:01;;;;;;;5.25;1.80;;;19.50;99.90;;;;;;5095929;28;20469;-53
2022/08/30 09:13:27;;;;;;;6.07;1.50;;;19.40;99.90;;;;;;5097677;28;20055;-53
2022/08/30 09:15:55;;;;;;;5.63;1.30;;;19.40;99.90;;;;;;5096645;28;20040;-53
2022/08/30 09:18:43;;;;;;;3.80;1.38;;;19.40;99.90;;;;;;5077992;28;20055;-52
2022/08/30 09:21:10;;;;;;;5.38;1.30;;;19.50;99.90;;;;;;5076470;28;20059;-55
2022/08/30 09:23:45;;;;;;;4.82;1.52;;;19.60;99.90;;;;;;5075912;28;20067;-52
2022/08/30 09:26:12;;;;;;;4.28;1.38;;;19.70;99.90;;;;;;5076777;28;20032;-53
2022/08/30 09:28:49;;;;;;;4.32;1.30;;;19.80;99.90;;;;;;5076309;28;20048;-53
2022/08/30 09:31:25;;;;;;;4.30;1.23;;;19.90;99.90;;;;;;5076279;28;20049;-54
2022/08/30 09:33:55;;;;;;;4.95;1.58;;;19.90;99.90;;;;;;5076442;28;20079;-53
2022/08/30 09:36:51;;;;;;;7.85;1.45;;;20.10;99.90;;;;;;5076024;28;20048;-53
2022/08/30 09:39:32;;;;;;;4.25;1.33;;;20.10;99.90;;;;;;5093173;28;20056;-53
2022/08/30 09:42:19;;;;;;;3.35;1.20;;;20.10;99.90;;;;;;5096696;28;20052;-52
2022/08/30 09:44:45;;;;;;;5.28;1.60;;;20.20;99.90;;;;;;5095905;28;20113;-54
2022/08/30 09:47:20;;;;;;;4.30;1.40;;;20.20;99.90;;;;;;5096080;28;20840;-53
2022/08/30 09:49:46;;;;;;;4.53;1.30;;;20.20;99.90;;;;;;5095599;28;21066;-53
2022/08/30 09:52:31;;;;;;;4.10;1.30;;;20.20;99.90;;;;;;5096467;28;20065;-53
2022/08/30 09:55:40;;;;;;;6.18;1.17;;;20.10;99.90;;;;;;5094638;28;20055;-53
2022/08/30 09:58:17;;;;;;;4.25;1.30;;;20.20;99.90;;;;;;5095415;28;20389;-53
2022/08/30 10:00:55;;;;;;;5.07;1.15;;;20.30;99.90;;;;;;5094988;28;20048;-53
2022/08/30 10:04:32;;;;;;;4.68;1.10;;;20.30;99.90;;;;;;5096197;28;20204;-53
2022/08/30 10:07:09;;;;;;;3.78;1.40;;;20.30;99.90;;;;;;4994145;28;20046;-54
2022/08/30 10:09:55;;;;;;;5.10;1.20;;;20.20;99.90;;;;;;5087485;28;20055;-52
2022/08/30 10:12:48;;;;;;;3.97;1.48;;;20.10;99.90;;;;;;5094572;28;20054;-53
2022/08/30 10:15:32;;;;;;;5.28;1.45;;;20.20;99.90;;;;;;5094723;28;20119;-53
2022/08/30 10:18:04;;;;;;;4.18;1.45;;;20.30;99.90;;;;;;5081295;28;20037;-53
2022/08/30 10:20:35;;;;;;;;;;;20.40;99.90;;;;;;5076077;28;20048;-53
2022/08/30 10:23:28;;;;;;;4.50;1.20;;;20.40;99.90;;;;;;5073486;28;19999;-52
2022/08/30 10:26:21;;;;;;;3.45;1.10;;;20.40;99.40;;;;;;5075491;28;20059;-52
2022/08/30 10:28:58;;;;;;;4.72;1.30;;;20.50;99.90;;;;;;5075442;28;20045;-53
2022/08/30 10:31:53;;;;;;;4.60;1.38;;;20.60;99.90;;;;;;5075030;28;20063;-54
2022/08/30 10:34:27;;;;;;;4.57;1.27;;;20.70;99.90;;;;;;5075170;28;20043;-53
2022/08/30 10:37:07;;;;;;;7.05;1.30;;;20.70;99.60;;;;;;5074723;28;20448;-54
2022/08/30 10:39:47;;;;;;;2.95;0.90;;;20.80;99.00;;;;;;5094405;28;20051;-53
2022/08/30 10:42:25;;;;;;;2.67;1.10;;;20.80;99.30;;;;;;5085905;28;20044;-54
2022/08/30 10:45:09;;;;;;;3.80;1.27;;;20.90;99.10;;;;;;5091852;28;20549;-55
2022/08/30 10:47:49;;;;;;;3.45;1.10;;;21.00;99.30;;;;;;5098616;28;20075;-53
2022/08/30 10:50:21;;;;;;;5.00;1.55;;;21.00;99.30;;;;;;5097678;28;20036;-53
2022/08/30 10:53:07;;;;;;;7.70;2.25;;;21.00;99.40;;;;;;5097129;28;20344;-56
2022/08/30 10:55:43;;;;;;;5.43;1.40;;;21.10;99.20;;;;;;5098087;28;20075;-52
2022/08/30 10:58:11;;;;;;;4.93;1.33;;;21.10;99.50;;;;;;5097839;28;20044;-52
2022/08/30 11:00:43;;;;;;;6.45;1.25;;;21.10;99.40;;;;;;5098438;28;20036;-52
2022/08/30 11:03:28;;;;;;;5.05;1.40;;;21.20;99.60;;;;;;5098116;28;20044;-52
2022/08/30 11:06:12;;;;;;;4.72;1.27;;;21.20;99.60;;;;;;5094419;28;20419;-52
2022/08/30 11:08:52;;;;;;;4.45;1.25;;;21.10;99.80;;;;;;5086424;28;20047;-52
2022/08/30 11:11:54;;;;;;;2.97;1.10;;;20.90;99.50;;;;;;5085435;28;20071;-52
2022/08/30 11:14:21;;;;;;;6.35;1.60;;;21.20;99.90;;;;;;5086809;28;20078;-53
2022/08/30 11:16:50;;;;;;;3.55;1.20;;;21.20;99.90;;;;;;5087162;28;20085;-54
2022/08/30 11:19:26;;;;;;;6.13;1.13;;;21.20;99.90;;;;;;5080960;28;20040;-53
2022/08/30 11:22:13;;;;;;;4.40;1.15;;;21.00;99.90;;;;;;5078195;28;20040;-54
2022/08/30 11:24:58;;;;;;;2.65;1.00;;;20.90;99.90;;;;;;5096438;28;20101;-54
2022/08/30 11:27:41;;;;;;;5.80;1.17;;;20.90;99.90;;;;;;5096160;28;20043;-53
2022/08/30 11:30:31;;;;;;;3.30;1.10;;;21.00;99.90;;;;;;5096411;28;20050;-53
2022/08/30 11:32:59;;;;;;;4.30;1.00;;;21.10;99.90;;;;;;5090940;28;20060;-54
2022/08/30 11:35:51;;;;;;;4.80;1.25;;;21.30;99.90;;;;;;5094503;28;20055;-54
2022/08/30 11:38:19;;;;;;;4.00;1.30;;;21.20;99.90;;;;;;5090756;28;20124;-54
2022/08/30 11:41:04;;;;;;;5.03;1.33;;;21.30;99.90;;;;;;5088776;28;20044;-54
2022/08/30 11:43:33;;;;;;;7.07;2.55;;;21.40;99.90;;;;;;5088838;28;20054;-53
2022/08/30 11:46:26;;;;;;;5.28;1.05;;;21.30;99.90;;;;;;5089317;28;20033;-53
2022/08/30 11:49:13;;;;;;;4.53;1.33;;;21.10;99.90;;;;;;5081681;28;20036;-53
2022/08/30 11:51:55;;;;;;;4.03;1.30;;;21.20;99.90;;;;;;5090308;28;20460;-54
2022/08/30 11:54:29;;;;;;;4.63;1.38;;;21.50;99.90;;;;;;5083445;28;20391;-54
2022/08/30 11:57:01;;;;;;;4.13;1.38;;;21.60;99.90;;;;;;5081758;28;20048;-54
2022/08/30 11:59:30;;;;;;;;;;;21.60;99.90;;;;;;5082638;28;20040;-54
2022/08/30 12:01:56;;;;;;;4.72;1.98;;;21.80;99.90;;;;;;5079984;28;19927;-54
2022/08/30 12:04:43;;;;;;;4.85;1.25;;;21.80;99.90;;;;;;5081976;28;20416;-54
2022/08/30 12:07:10;;;;;;;4.65;1.20;;;21.70;99.90;;;;;;5086272;28;20040;-54
2022/08/30 12:09:36;;;;;;;5.03;1.27;;;21.90;99.90;;;;;;5088009;28;20086;-54
2022/08/30 12:12:11;;;;;;;4.10;1.20;;;21.70;99.90;;;;;;5080178;28;20070;-56
2022/08/30 12:14:39;;;;;;;4.88;1.27;;;21.90;99.90;;;;;;5080256;28;20103;-54
2022/08/30 12:20:21;;;;;;;4.32;1.30;;;22.10;99.90;;;;;;5090851;28;20084;-54
2022/08/30 12:22:48;;;;;;;4.65;1.33;;;22.20;99.90;;;;;;5096752;28;20510;-53
2022/08/30 12:25:24;;;;;;;5.47;1.25;;;22.10;99.90;;;;;;5096046;28;20137;-53
2022/08/30 12:27:50;;;;;;;4.65;1.70;;;22.20;99.90;;;;;;5095673;28;20867;-55
2022/08/30 12:30:26;;;;;;;5.95;1.50;;;22.20;99.90;;;;;;5097657;28;20036;-54
2022/08/30 12:32:52;;;;;;;5.10;1.20;;;22.30;99.80;;;;;;5096887;28;20048;-51
2022/08/30 12:35:24;;;;;;;8.52;1.70;;;22.20;99.90;;;;;;5097308;28;20032;-51
2022/08/30 12:37:55;;;;;;;;;;;22.00;99.90;;;;;;5097862;28;20071;-51
2022/08/30 12:40:23;;;;;;;5.10;1.35;;;22.20;99.70;;;;;;5097904;28;19924;-51
2022/08/30 12:42:55;;;;;;;5.03;1.20;;;22.20;99.90;;;;;;5101019;28;20048;-53
2022/08/30 12:45:25;;;;;;;3.28;1.35;;;22.20;99.90;;;;;;5099775;28;20059;-50
2022/08/30 12:48:04;;;;;;;6.75;1.58;;;22.10;99.90;;;;;;5099361;28;20083;-51
2022/08/30 12:50:41;;;;;;;6.90;1.80;;;22.00;99.90;;;;;;5100830;28;20044;-52
2022/08/30 12:53:11;;;;;;;4.65;1.65;;;21.80;99.90;;;;;;5099714;28;20044;-52
2022/08/30 12:56:00;;;;;;;5.32;1.50;;;21.90;99.90;;;;;;5100467;28;20059;-53
2022/08/30 12:58:46;;;;;;;4.15;1.20;;;22.00;99.90;;;;;;5099918;28;20044;-53
2022/08/30 13:01:14;;;;;;;4.97;1.30;;;22.00;99.90;;;;;;5100124;28;20048;-50
2022/08/30 13:03:40;;;;;;;4.60;1.40;;;21.90;99.90;;;;;;5100746;28;20044;-52
2022/08/30 13:06:07;;;;;;;7.38;1.75;;;21.90;99.90;;;;;;5100041;28;20150;-53
2022/08/30 13:08:43;;;;;;;5.63;1.58;;;22.00;99.90;;;;;;5100332;28;20101;-52
2022/08/30 13:11:25;;;;;;;5.40;1.60;;;22.10;99.90;;;;;;5099755;28;20050;-52